sensor_id;sensor_type;location;lat;lon;timestamp;P1;durP1;ratioP1;P2;durP2;ratioP2
55913;SDS011;58179;48.776;9.124;2023-03-01T00:01:23;55.20;;;34.53;;
55913;SDS011;58179;48.776;9.124;2023-03-01T00:03:51;61.45;;;38.25;;
55913;SDS011;58179;48.776;9.124;2023-03-01T00:06:19;55.13;;;34.63;;
55913;SDS011;58179;48.776;9.124;2023-03-01T00:08:47;62.88;;;38.20;;
55913;SDS011;58179;48.776;9.124;2023-03-01T00:11:14;55.88;;;35.17;;
55913;SDS011;58179;48.776;9.124;2023-03-01T00:13:43;67.07;;;37.28;;
55913;SDS011;58179;48.776;9.124;2023-03-01T00:16:11;61.25;;;37.13;;
55913;SDS011;58179;48.776;9.124;2023-03-01T00:18:40;59.33;;;36.58;;
55913;SDS011;58179;48.776;9.124;2023-03-01T00:21:06;54.30;;;34.92;;
55913;SDS011;58179;48.776;9.124;2023-03-01T00:23:33;55.88;;;35.38;;
55913;SDS011;58179;48.776;9.124;2023-03-01T00:26:01;53.10;;;33.13;;
55913;SDS011;58179;48.776;9.124;2023-03-01T00:28:31;58.15;;;35.50;;
55913;SDS011;58179;48.776;9.124;2023-03-01T00:31:01;59.53;;;35.65;;
55913;SDS011;58179;48.776;9.124;2023-03-01T00:33:29;49.40;;;32.17;;
55913;SDS011;58179;48.776;9.124;2023-03-01T00:35:57;62.08;;;36.80;;
55913;SDS011;58179;48.776;9.124;2023-03-01T00:38:23;54.28;;;33.95;;
55913;SDS011;58179;48.776;9.124;2023-03-01T00:40:49;53.05;;;33.75;;
55913;SDS011;58179;48.776;9.124;2023-03-01T00:43:16;59.67;;;35.63;;
55913;SDS011;58179;48.776;9.124;2023-03-01T00:45:42;54.03;;;33.83;;
55913;SDS011;58179;48.776;9.124;2023-03-01T00:48:08;50.35;;;32.63;;
55913;SDS011;58179;48.776;9.124;2023-03-01T00:50:34;48.47;;;31.40;;
55913;SDS011;58179;48.776;9.124;2023-03-01T00:53:00;59.05;;;36.00;;
55913;SDS011;58179;48.776;9.124;2023-03-01T00:55:26;49.90;;;31.52;;
55913;SDS011;58179;48.776;9.124;2023-03-01T00:57:52;56.38;;;34.53;;
55913;SDS011;58179;48.776;9.124;2023-03-01T01:00:19;54.25;;;34.65;;
55913;SDS011;58179;48.776;9.124;2023-03-01T01:02:46;57.57;;;35.67;;
55913;SDS011;58179;48.776;9.124;2023-03-01T01:05:12;52.60;;;33.90;;
55913;SDS011;58179;48.776;9.124;2023-03-01T01:07:38;58.47;;;36.53;;
55913;SDS011;58179;48.776;9.124;2023-03-01T01:10:05;53.97;;;33.38;;
55913;SDS011;58179;48.776;9.124;2023-03-01T01:12:32;61.88;;;35.10;;
55913;SDS011;58179;48.776;9.124;2023-03-01T01:14:58;56.72;;;34.65;;
55913;SDS011;58179;48.776;9.124;2023-03-01T01:17:25;56.72;;;34.67;;
55913;SDS011;58179;48.776;9.124;2023-03-01T01:19:51;58.10;;;35.03;;
55913;SDS011;58179;48.776;9.124;2023-03-01T01:22:17;57.85;;;34.38;;
55913;SDS011;58179;48.776;9.124;2023-03-01T01:24:43;54.50;;;33.28;;
55913;SDS011;58179;48.776;9.124;2023-03-01T01:27:09;55.90;;;35.23;;
55913;SDS011;58179;48.776;9.124;2023-03-01T01:29:35;60.90;;;36.55;;
55913;SDS011;58179;48.776;9.124;2023-03-01T01:32:01;62.00;;;38.35;;
55913;SDS011;58179;48.776;9.124;2023-03-01T01:34:28;60.87;;;36.70;;
55913;SDS011;58179;48.776;9.124;2023-03-01T01:36:54;57.08;;;34.47;;
55913;SDS011;58179;48.776;9.124;2023-03-01T01:39:20;61.95;;;37.05;;
55913;SDS011;58179;48.776;9.124;2023-03-01T01:41:47;63.83;;;37.22;;
55913;SDS011;58179;48.776;9.124;2023-03-01T01:44:15;59.90;;;36.47;;
55913;SDS011;58179;48.776;9.124;2023-03-01T01:46:44;65.45;;;37.22;;
55913;SDS011;58179;48.776;9.124;2023-03-01T01:49:22;65.90;;;37.45;;
55913;SDS011;58179;48.776;9.124;2023-03-01T01:51:57;60.42;;;35.75;;
55913;SDS011;58179;48.776;9.124;2023-03-01T01:54:31;58.15;;;34.63;;
55913;SDS011;58179;48.776;9.124;2023-03-01T01:57:07;61.63;;;37.30;;
55913;SDS011;58179;48.776;9.124;2023-03-01T01:59:38;66.43;;;38.20;;
55913;SDS011;58179;48.776;9.124;2023-03-01T02:02:05;66.68;;;40.08;;
55913;SDS011;58179;48.776;9.124;2023-03-01T02:04:31;63.30;;;37.30;;
55913;SDS011;58179;48.776;9.124;2023-03-01T02:07:00;64.45;;;38.22;;
55913;SDS011;58179;48.776;9.124;2023-03-01T02:09:32;64.82;;;38.47;;
55913;SDS011;58179;48.776;9.124;2023-03-01T02:11:59;61.35;;;36.92;;
55913;SDS011;58179;48.776;9.124;2023-03-01T02:14:26;70.35;;;41.42;;
55913;SDS011;58179;48.776;9.124;2023-03-01T02:16:52;59.95;;;36.35;;
55913;SDS011;58179;48.776;9.124;2023-03-01T02:19:20;63.63;;;38.58;;
55913;SDS011;58179;48.776;9.124;2023-03-01T02:22:01;59.42;;;37.45;;
55913;SDS011;58179;48.776;9.124;2023-03-01T02:24:36;60.90;;;37.90;;
55913;SDS011;58179;48.776;9.124;2023-03-01T02:27:14;57.17;;;35.95;;
55913;SDS011;58179;48.776;9.124;2023-03-01T02:29:43;57.00;;;36.13;;
55913;SDS011;58179;48.776;9.124;2023-03-01T02:32:09;56.80;;;35.53;;
55913;SDS011;58179;48.776;9.124;2023-03-01T02:34:37;56.43;;;37.00;;
55913;SDS011;58179;48.776;9.124;2023-03-01T02:37:05;57.60;;;36.85;;
55913;SDS011;58179;48.776;9.124;2023-03-01T02:39:38;54.88;;;36.42;;
55913;SDS011;58179;48.776;9.124;2023-03-01T02:42:08;51.25;;;32.83;;
55913;SDS011;58179;48.776;9.124;2023-03-01T02:44:37;61.17;;;37.22;;
55913;SDS011;58179;48.776;9.124;2023-03-01T02:47:04;58.92;;;37.17;;
55913;SDS011;58179;48.776;9.124;2023-03-01T02:49:32;57.45;;;36.30;;
55913;SDS011;58179;48.776;9.124;2023-03-01T02:54:59;52.42;;;34.10;;
55913;SDS011;58179;48.776;9.124;2023-03-01T02:57:31;54.17;;;33.90;;
55913;SDS011;58179;48.776;9.124;2023-03-01T03:00:02;50.90;;;33.45;;
55913;SDS011;58179;48.776;9.124;2023-03-01T03:02:34;59.72;;;36.60;;
55913;SDS011;58179;48.776;9.124;2023-03-01T03:05:02;53.35;;;34.20;;
55913;SDS011;58179;48.776;9.124;2023-03-01T03:07:31;54.22;;;34.90;;
55913;SDS011;58179;48.776;9.124;2023-03-01T03:09:58;55.88;;;35.85;;
55913;SDS011;58179;48.776;9.124;2023-03-01T03:12:24;56.77;;;35.87;;
55913;SDS011;58179;48.776;9.124;2023-03-01T03:14:50;58.22;;;36.97;;
55913;SDS011;58179;48.776;9.124;2023-03-01T03:17:16;55.05;;;35.92;;
55913;SDS011;58179;48.776;9.124;2023-03-01T03:19:43;57.75;;;36.58;;
55913;SDS011;58179;48.776;9.124;2023-03-01T03:22:10;55.97;;;35.35;;
55913;SDS011;58179;48.776;9.124;2023-03-01T03:24:36;60.92;;;36.50;;
55913;SDS011;58179;48.776;9.124;2023-03-01T03:27:03;54.35;;;34.55;;
55913;SDS011;58179;48.776;9.124;2023-03-01T03:29:29;52.70;;;34.00;;
55913;SDS011;58179;48.776;9.124;2023-03-01T03:31:55;57.90;;;36.53;;
55913;SDS011;58179;48.776;9.124;2023-03-01T03:34:21;55.20;;;34.95;;
55913;SDS011;58179;48.776;9.124;2023-03-01T03:36:49;53.03;;;35.30;;
55913;SDS011;58179;48.776;9.124;2023-03-01T03:39:21;52.42;;;34.08;;
55913;SDS011;58179;48.776;9.124;2023-03-01T03:41:47;53.63;;;35.55;;
55913;SDS011;58179;48.776;9.124;2023-03-01T03:44:13;54.45;;;35.22;;
55913;SDS011;58179;48.776;9.124;2023-03-01T03:46:39;53.20;;;34.05;;
55913;SDS011;58179;48.776;9.124;2023-03-01T03:49:05;56.83;;;36.13;;
55913;SDS011;58179;48.776;9.124;2023-03-01T03:51:31;53.92;;;34.40;;
55913;SDS011;58179;48.776;9.124;2023-03-01T03:53:58;56.50;;;36.75;;
55913;SDS011;58179;48.776;9.124;2023-03-01T03:56:24;63.72;;;39.60;;
55913;SDS011;58179;48.776;9.124;2023-03-01T03:58:50;57.03;;;36.03;;
55913;SDS011;58179;48.776;9.124;2023-03-01T04:01:16;57.88;;;36.33;;
55913;SDS011;58179;48.776;9.124;2023-03-01T04:03:43;56.50;;;36.22;;
55913;SDS011;58179;48.776;9.124;2023-03-01T04:06:12;58.70;;;36.67;;
55913;SDS011;58179;48.776;9.124;2023-03-01T04:08:38;59.95;;;37.03;;
55913;SDS011;58179;48.776;9.124;2023-03-01T04:11:06;55.97;;;36.70;;
55913;SDS011;58179;48.776;9.124;2023-03-01T04:13:52;56.00;;;35.50;;
55913;SDS011;58179;48.776;9.124;2023-03-01T04:16:20;57.08;;;36.30;;
55913;SDS011;58179;48.776;9.124;2023-03-01T04:18:47;54.75;;;36.53;;
55913;SDS011;58179;48.776;9.124;2023-03-01T04:21:13;59.07;;;37.93;;
55913;SDS011;58179;48.776;9.124;2023-03-01T04:23:39;59.47;;;38.40;;
55913;SDS011;58179;48.776;9.124;2023-03-01T04:26:07;56.03;;;36.90;;
55913;SDS011;58179;48.776;9.124;2023-03-01T04:28:34;59.70;;;37.05;;
55913;SDS011;58179;48.776;9.124;2023-03-01T04:31:02;56.67;;;35.97;;
55913;SDS011;58179;48.776;9.124;2023-03-01T04:33:38;60.03;;;36.72;;
55913;SDS011;58179;48.776;9.124;2023-03-01T04:36:05;58.10;;;36.63;;
55913;SDS011;58179;48.776;9.124;2023-03-01T04:38:33;59.92;;;37.65;;
55913;SDS011;58179;48.776;9.124;2023-03-01T04:41:01;59.38;;;37.58;;
55913;SDS011;58179;48.776;9.124;2023-03-01T04:43:29;60.92;;;36.95;;
55913;SDS011;58179;48.776;9.124;2023-03-01T04:45:59;62.10;;;38.72;;
55913;SDS011;58179;48.776;9.124;2023-03-01T04:48:27;62.58;;;38.08;;
55913;SDS011;58179;48.776;9.124;2023-03-01T04:50:53;64.07;;;39.63;;
55913;SDS011;58179;48.776;9.124;2023-03-01T04:53:19;60.00;;;38.17;;
55913;SDS011;58179;48.776;9.124;2023-03-01T04:55:45;56.37;;;37.60;;
55913;SDS011;58179;48.776;9.124;2023-03-01T04:58:11;62.22;;;38.65;;
55913;SDS011;58179;48.776;9.124;2023-03-01T05:00:38;63.17;;;40.67;;
55913;SDS011;58179;48.776;9.124;2023-03-01T05:03:04;59.15;;;37.30;;
55913;SDS011;58179;48.776;9.124;2023-03-01T05:05:31;60.07;;;39.10;;
55913;SDS011;58179;48.776;9.124;2023-03-01T05:07:59;59.97;;;37.33;;
55913;SDS011;58179;48.776;9.124;2023-03-01T05:10:28;56.20;;;36.67;;
55913;SDS011;58179;48.776;9.124;2023-03-01T05:12:56;55.80;;;36.45;;
55913;SDS011;58179;48.776;9.124;2023-03-01T05:15:22;55.83;;;35.45;;
55913;SDS011;58179;48.776;9.124;2023-03-01T05:17:54;57.53;;;35.55;;
55913;SDS011;58179;48.776;9.124;2023-03-01T05:20:24;57.33;;;36.47;;
55913;SDS011;58179;48.776;9.124;2023-03-01T05:22:50;59.07;;;37.10;;
55913;SDS011;58179;48.776;9.124;2023-03-01T05:25:17;54.37;;;35.47;;
55913;SDS011;58179;48.776;9.124;2023-03-01T05:27:43;54.75;;;35.13;;
55913;SDS011;58179;48.776;9.124;2023-03-01T05:30:09;58.63;;;36.85;;
55913;SDS011;58179;48.776;9.124;2023-03-01T05:32:41;56.15;;;36.20;;
55913;SDS011;58179;48.776;9.124;2023-03-01T05:35:16;58.97;;;36.22;;
55913;SDS011;58179;48.776;9.124;2023-03-01T05:37:43;60.90;;;36.90;;
55913;SDS011;58179;48.776;9.124;2023-03-01T05:40:17;57.50;;;35.00;;
55913;SDS011;58179;48.776;9.124;2023-03-01T05:42:44;62.70;;;38.08;;
55913;SDS011;58179;48.776;9.124;2023-03-01T05:45:12;59.30;;;36.50;;
55913;SDS011;58179;48.776;9.124;2023-03-01T05:47:39;56.05;;;35.65;;
55913;SDS011;58179;48.776;9.124;2023-03-01T05:50:10;58.88;;;37.40;;
55913;SDS011;58179;48.776;9.124;2023-03-01T05:52:40;56.47;;;36.03;;
55913;SDS011;58179;48.776;9.124;2023-03-01T05:55:06;59.22;;;37.95;;
55913;SDS011;58179;48.776;9.124;2023-03-01T05:57:33;57.15;;;36.97;;
55913;SDS011;58179;48.776;9.124;2023-03-01T05:59:59;62.40;;;37.45;;
55913;SDS011;58179;48.776;9.124;2023-03-01T06:02:24;53.27;;;34.77;;
55913;SDS011;58179;48.776;9.124;2023-03-01T06:04:50;59.70;;;37.72;;
55913;SDS011;58179;48.776;9.124;2023-03-01T06:07:16;62.97;;;39.47;;
55913;SDS011;58179;48.776;9.124;2023-03-01T06:09:43;65.53;;;39.55;;
55913;SDS011;58179;48.776;9.124;2023-03-01T06:12:09;66.07;;;40.13;;
55913;SDS011;58179;48.776;9.124;2023-03-01T06:14:35;59.10;;;38.58;;
55913;SDS011;58179;48.776;9.124;2023-03-01T06:17:01;60.47;;;38.10;;
55913;SDS011;58179;48.776;9.124;2023-03-01T06:19:27;59.42;;;37.90;;
55913;SDS011;58179;48.776;9.124;2023-03-01T06:21:53;58.33;;;36.60;;
55913;SDS011;58179;48.776;9.124;2023-03-01T06:24:19;58.78;;;36.65;;
55913;SDS011;58179;48.776;9.124;2023-03-01T06:26:46;67.40;;;39.65;;
55913;SDS011;58179;48.776;9.124;2023-03-01T06:29:14;64.55;;;39.42;;
55913;SDS011;58179;48.776;9.124;2023-03-01T06:31:40;61.90;;;38.72;;
55913;SDS011;58179;48.776;9.124;2023-03-01T06:34:05;61.73;;;38.67;;
55913;SDS011;58179;48.776;9.124;2023-03-01T06:36:31;67.75;;;40.90;;
55913;SDS011;58179;48.776;9.124;2023-03-01T06:38:57;58.53;;;37.30;;
55913;SDS011;58179;48.776;9.124;2023-03-01T06:41:23;64.50;;;39.45;;
55913;SDS011;58179;48.776;9.124;2023-03-01T06:43:50;58.20;;;37.55;;
55913;SDS011;58179;48.776;9.124;2023-03-01T06:46:16;63.53;;;37.95;;
55913;SDS011;58179;48.776;9.124;2023-03-01T06:48:42;61.97;;;37.55;;
55913;SDS011;58179;48.776;9.124;2023-03-01T06:51:08;61.53;;;39.20;;
55913;SDS011;58179;48.776;9.124;2023-03-01T06:53:34;59.42;;;37.92;;
55913;SDS011;58179;48.776;9.124;2023-03-01T06:56:00;59.47;;;37.35;;
55913;SDS011;58179;48.776;9.124;2023-03-01T06:58:26;60.33;;;39.40;;
55913;SDS011;58179;48.776;9.124;2023-03-01T07:00:53;55.40;;;37.07;;
55913;SDS011;58179;48.776;9.124;2023-03-01T07:03:19;63.05;;;38.97;;
55913;SDS011;58179;48.776;9.124;2023-03-01T07:05:45;72.10;;;40.33;;
55913;SDS011;58179;48.776;9.124;2023-03-01T07:08:14;56.45;;;37.15;;
55913;SDS011;58179;48.776;9.124;2023-03-01T07:10:39;58.17;;;37.70;;
55913;SDS011;58179;48.776;9.124;2023-03-01T07:13:05;58.45;;;37.00;;
55913;SDS011;58179;48.776;9.124;2023-03-01T07:15:31;59.15;;;36.95;;
55913;SDS011;58179;48.776;9.124;2023-03-01T07:17:59;63.25;;;38.50;;
55913;SDS011;58179;48.776;9.124;2023-03-01T07:20:25;62.78;;;38.42;;
55913;SDS011;58179;48.776;9.124;2023-03-01T07:22:51;59.90;;;36.97;;
55913;SDS011;58179;48.776;9.124;2023-03-01T07:25:17;62.72;;;39.60;;
55913;SDS011;58179;48.776;9.124;2023-03-01T07:27:43;65.88;;;40.58;;
55913;SDS011;58179;48.776;9.124;2023-03-01T07:30:09;66.05;;;40.80;;
55913;SDS011;58179;48.776;9.124;2023-03-01T07:32:36;65.70;;;40.63;;
55913;SDS011;58179;48.776;9.124;2023-03-01T07:35:03;62.50;;;38.95;;
55913;SDS011;58179;48.776;9.124;2023-03-01T07:37:30;76.00;;;42.40;;
55913;SDS011;58179;48.776;9.124;2023-03-01T07:39:56;61.97;;;39.22;;
55913;SDS011;58179;48.776;9.124;2023-03-01T07:42:22;62.10;;;39.30;;
55913;SDS011;58179;48.776;9.124;2023-03-01T07:44:48;61.08;;;37.47;;
55913;SDS011;58179;48.776;9.124;2023-03-01T07:47:14;61.58;;;38.58;;
55913;SDS011;58179;48.776;9.124;2023-03-01T07:49:40;61.47;;;39.33;;
55913;SDS011;58179;48.776;9.124;2023-03-01T07:52:07;65.10;;;39.42;;
55913;SDS011;58179;48.776;9.124;2023-03-01T07:54:35;59.80;;;38.17;;
55913;SDS011;58179;48.776;9.124;2023-03-01T07:57:01;58.27;;;36.93;;
55913;SDS011;58179;48.776;9.124;2023-03-01T07:59:27;61.28;;;38.42;;
55913;SDS011;58179;48.776;9.124;2023-03-01T08:01:54;54.07;;;36.17;;
55913;SDS011;58179;48.776;9.124;2023-03-01T08:04:21;58.40;;;37.40;;
55913;SDS011;58179;48.776;9.124;2023-03-01T08:06:49;56.33;;;37.15;;
55913;SDS011;58179;48.776;9.124;2023-03-01T08:09:17;63.15;;;39.25;;
55913;SDS011;58179;48.776;9.124;2023-03-01T08:11:42;58.95;;;37.58;;
55913;SDS011;58179;48.776;9.124;2023-03-01T08:14:09;58.42;;;37.35;;
55913;SDS011;58179;48.776;9.124;2023-03-01T08:16:35;53.38;;;35.05;;
55913;SDS011;58179;48.776;9.124;2023-03-01T08:19:03;56.00;;;35.50;;
55913;SDS011;58179;48.776;9.124;2023-03-01T08:21:30;60.55;;;38.35;;
55913;SDS011;58179;48.776;9.124;2023-03-01T08:23:55;60.90;;;37.77;;
55913;SDS011;58179;48.776;9.124;2023-03-01T08:26:23;60.97;;;38.42;;
55913;SDS011;58179;48.776;9.124;2023-03-01T08:28:49;58.63;;;38.27;;
55913;SDS011;58179;48.776;9.124;2023-03-01T08:31:16;61.25;;;39.08;;
55913;SDS011;58179;48.776;9.124;2023-03-01T08:33:44;57.97;;;35.95;;
55913;SDS011;58179;48.776;9.124;2023-03-01T08:36:15;64.37;;;38.63;;
55913;SDS011;58179;48.776;9.124;2023-03-01T08:38:42;58.28;;;36.65;;
55913;SDS011;58179;48.776;9.124;2023-03-01T08:41:08;57.97;;;36.55;;
55913;SDS011;58179;48.776;9.124;2023-03-01T08:43:38;59.20;;;36.78;;
55913;SDS011;58179;48.776;9.124;2023-03-01T08:46:04;61.30;;;38.20;;
55913;SDS011;58179;48.776;9.124;2023-03-01T08:48:30;56.83;;;36.57;;
55913;SDS011;58179;48.776;9.124;2023-03-01T08:50:56;55.85;;;37.10;;
55913;SDS011;58179;48.776;9.124;2023-03-01T08:53:22;55.35;;;36.03;;
55913;SDS011;58179;48.776;9.124;2023-03-01T08:55:48;55.95;;;36.63;;
55913;SDS011;58179;48.776;9.124;2023-03-01T08:58:13;55.67;;;36.07;;
55913;SDS011;58179;48.776;9.124;2023-03-01T09:00:41;60.45;;;37.45;;
55913;SDS011;58179;48.776;9.124;2023-03-01T09:03:06;53.10;;;35.27;;
55913;SDS011;58179;48.776;9.124;2023-03-01T09:05:32;54.67;;;35.88;;
55913;SDS011;58179;48.776;9.124;2023-03-01T09:07:59;53.30;;;34.20;;
55913;SDS011;58179;48.776;9.124;2023-03-01T09:10:25;59.53;;;36.83;;
55913;SDS011;58179;48.776;9.124;2023-03-01T09:12:52;49.10;;;33.45;;
55913;SDS011;58179;48.776;9.124;2023-03-01T09:15:18;59.80;;;36.15;;
55913;SDS011;58179;48.776;9.124;2023-03-01T09:17:46;52.22;;;34.63;;
55913;SDS011;58179;48.776;9.124;2023-03-01T09:20:11;52.72;;;35.28;;
55913;SDS011;58179;48.776;9.124;2023-03-01T09:22:37;49.80;;;33.88;;
55913;SDS011;58179;48.776;9.124;2023-03-01T09:25:03;52.77;;;34.63;;
55913;SDS011;58179;48.776;9.124;2023-03-01T09:27:30;50.33;;;34.53;;
55913;SDS011;58179;48.776;9.124;2023-03-01T09:29:56;55.87;;;35.60;;
55913;SDS011;58179;48.776;9.124;2023-03-01T09:32:22;50.80;;;32.85;;
55913;SDS011;58179;48.776;9.124;2023-03-01T09:34:49;52.30;;;35.10;;
55913;SDS011;58179;48.776;9.124;2023-03-01T09:37:31;48.05;;;31.50;;
55913;SDS011;58179;48.776;9.124;2023-03-01T09:39:58;47.47;;;32.65;;
55913;SDS011;58179;48.776;9.124;2023-03-01T09:42:24;50.63;;;32.80;;
55913;SDS011;58179;48.776;9.124;2023-03-01T09:44:54;49.70;;;32.63;;
55913;SDS011;58179;48.776;9.124;2023-03-01T09:47:25;53.40;;;34.72;;
55913;SDS011;58179;48.776;9.124;2023-03-01T09:49:59;49.05;;;33.15;;
55913;SDS011;58179;48.776;9.124;2023-03-01T09:52:33;48.30;;;32.78;;
55913;SDS011;58179;48.776;9.124;2023-03-01T09:55:08;48.63;;;32.38;;
55913;SDS011;58179;48.776;9.124;2023-03-01T09:57:38;49.20;;;31.98;;
55913;SDS011;58179;48.776;9.124;2023-03-01T10:00:23;49.53;;;33.00;;
55913;SDS011;58179;48.776;9.124;2023-03-01T10:02:59;52.83;;;32.25;;
55913;SDS011;58179;48.776;9.124;2023-03-01T10:05:39;43.80;;;30.15;;
55913;SDS011;58179;48.776;9.124;2023-03-01T10:08:24;44.70;;;29.08;;
55913;SDS011;58179;48.776;9.124;2023-03-01T10:11:13;41.70;;;26.00;;
55913;SDS011;58179;48.776;9.124;2023-03-01T10:13:46;41.47;;;24.77;;
55913;SDS011;58179;48.776;9.124;2023-03-01T10:16:21;36.80;;;24.02;;
55913;SDS011;58179;48.776;9.124;2023-03-01T10:18:58;38.25;;;23.52;;
55913;SDS011;58179;48.776;9.124;2023-03-01T10:21:28;37.20;;;23.35;;
55913;SDS011;58179;48.776;9.124;2023-03-01T10:23:57;37.15;;;23.17;;
55913;SDS011;58179;48.776;9.124;2023-03-01T10:29:23;33.30;;;22.42;;
55913;SDS011;58179;48.776;9.124;2023-03-01T10:31:54;32.33;;;21.60;;
55913;SDS011;58179;48.776;9.124;2023-03-01T10:34:25;30.10;;;20.77;;
55913;SDS011;58179;48.776;9.124;2023-03-01T10:36:57;28.88;;;19.55;;
55913;SDS011;58179;48.776;9.124;2023-03-01T10:39:33;25.90;;;18.10;;
55913;SDS011;58179;48.776;9.124;2023-03-01T10:42:00;29.70;;;18.80;;
55913;SDS011;58179;48.776;9.124;2023-03-01T10:44:36;29.25;;;19.08;;
55913;SDS011;58179;48.776;9.124;2023-03-01T10:47:08;26.38;;;18.15;;
55913;SDS011;58179;48.776;9.124;2023-03-01T10:49:46;24.58;;;15.98;;
55913;SDS011;58179;48.776;9.124;2023-03-01T10:52:22;25.52;;;17.48;;
55913;SDS011;58179;48.776;9.124;2023-03-01T10:54:51;29.10;;;18.90;;
55913;SDS011;58179;48.776;9.124;2023-03-01T10:57:32;24.07;;;16.50;;
55913;SDS011;58179;48.776;9.124;2023-03-01T11:00:21;26.25;;;18.05;;
55913;SDS011;58179;48.776;9.124;2023-03-01T11:02:51;24.85;;;18.40;;
55913;SDS011;58179;48.776;9.124;2023-03-01T11:05:35;23.30;;;16.55;;
55913;SDS011;58179;48.776;9.124;2023-03-01T11:08:02;23.48;;;16.80;;
55913;SDS011;58179;48.776;9.124;2023-03-01T11:10:29;21.23;;;15.35;;
55913;SDS011;58179;48.776;9.124;2023-03-01T11:13:07;25.20;;;16.98;;
55913;SDS011;58179;48.776;9.124;2023-03-01T11:15:39;23.97;;;16.93;;
55913;SDS011;58179;48.776;9.124;2023-03-01T11:18:15;27.63;;;17.40;;
55913;SDS011;58179;48.776;9.124;2023-03-01T11:20:45;25.85;;;17.92;;
55913;SDS011;58179;48.776;9.124;2023-03-01T11:23:14;24.13;;;16.70;;
55913;SDS011;58179;48.776;9.124;2023-03-01T11:25:41;29.95;;;18.45;;
55913;SDS011;58179;48.776;9.124;2023-03-01T11:28:13;26.25;;;18.60;;
55913;SDS011;58179;48.776;9.124;2023-03-01T11:30:44;26.88;;;18.30;;
55913;SDS011;58179;48.776;9.124;2023-03-01T11:33:20;27.27;;;18.58;;
55913;SDS011;58179;48.776;9.124;2023-03-01T11:36:07;30.83;;;19.15;;
55913;SDS011;58179;48.776;9.124;2023-03-01T11:38:42;29.48;;;18.42;;
55913;SDS011;58179;48.776;9.124;2023-03-01T11:41:11;24.75;;;17.35;;
55913;SDS011;58179;48.776;9.124;2023-03-01T11:43:44;26.80;;;17.77;;
55913;SDS011;58179;48.776;9.124;2023-03-01T11:46:29;27.48;;;17.73;;
55913;SDS011;58179;48.776;9.124;2023-03-01T11:49:30;26.07;;;18.63;;
55913;SDS011;58179;48.776;9.124;2023-03-01T11:52:35;21.92;;;15.75;;
55913;SDS011;58179;48.776;9.124;2023-03-01T11:55:19;26.42;;;18.63;;
55913;SDS011;58179;48.776;9.124;2023-03-01T11:58:13;21.43;;;15.97;;
55913;SDS011;58179;48.776;9.124;2023-03-01T12:00:55;23.85;;;16.73;;
55913;SDS011;58179;48.776;9.124;2023-03-01T12:03:37;23.50;;;16.10;;
55913;SDS011;58179;48.776;9.124;2023-03-01T12:06:29;21.58;;;15.32;;
55913;SDS011;58179;48.776;9.124;2023-03-01T12:09:15;22.42;;;16.95;;
55913;SDS011;58179;48.776;9.124;2023-03-01T12:12:02;24.40;;;17.83;;
55913;SDS011;58179;48.776;9.124;2023-03-01T12:14:55;28.27;;;18.73;;
55913;SDS011;58179;48.776;9.124;2023-03-01T12:17:49;27.38;;;18.13;;
55913;SDS011;58179;48.776;9.124;2023-03-01T12:20:51;22.35;;;16.25;;
55913;SDS011;58179;48.776;9.124;2023-03-01T12:23:42;23.08;;;16.02;;
55913;SDS011;58179;48.776;9.124;2023-03-01T12:26:35;22.95;;;15.43;;
55913;SDS011;58179;48.776;9.124;2023-03-01T12:31:44;23.03;;;16.80;;
55913;SDS011;58179;48.776;9.124;2023-03-01T12:34:42;25.10;;;17.45;;
55913;SDS011;58179;48.776;9.124;2023-03-01T12:37:33;21.27;;;15.40;;
55913;SDS011;58179;48.776;9.124;2023-03-01T12:40:14;29.35;;;18.77;;
55913;SDS011;58179;48.776;9.124;2023-03-01T12:43:15;24.60;;;16.83;;
55913;SDS011;58179;48.776;9.124;2023-03-01T12:45:57;25.42;;;17.08;;
55913;SDS011;58179;48.776;9.124;2023-03-01T12:48:43;22.35;;;15.10;;
55913;SDS011;58179;48.776;9.124;2023-03-01T12:51:23;24.02;;;17.08;;
55913;SDS011;58179;48.776;9.124;2023-03-01T12:53:53;22.17;;;16.40;;
55913;SDS011;58179;48.776;9.124;2023-03-01T12:56:23;22.70;;;15.73;;
55913;SDS011;58179;48.776;9.124;2023-03-01T12:58:55;21.88;;;15.45;;
55913;SDS011;58179;48.776;9.124;2023-03-01T13:01:33;22.10;;;15.03;;
55913;SDS011;58179;48.776;9.124;2023-03-01T13:04:12;20.02;;;14.80;;
55913;SDS011;58179;48.776;9.124;2023-03-01T13:06:52;23.87;;;15.07;;
55913;SDS011;58179;48.776;9.124;2023-03-01T13:09:38;20.83;;;15.65;;
55913;SDS011;58179;48.776;9.124;2023-03-01T13:15:24;18.80;;;13.57;;
55913;SDS011;58179;48.776;9.124;2023-03-01T13:17:59;21.02;;;15.05;;
55913;SDS011;58179;48.776;9.124;2023-03-01T13:20:29;21.07;;;15.17;;
55913;SDS011;58179;48.776;9.124;2023-03-01T13:23:01;20.65;;;14.48;;
55913;SDS011;58179;48.776;9.124;2023-03-01T13:25:32;20.65;;;13.32;;
55913;SDS011;58179;48.776;9.124;2023-03-01T13:31:03;19.95;;;14.48;;
55913;SDS011;58179;48.776;9.124;2023-03-01T13:33:38;23.45;;;17.17;;
55913;SDS011;58179;48.776;9.124;2023-03-01T13:36:09;25.48;;;17.17;;
55913;SDS011;58179;48.776;9.124;2023-03-01T13:38:41;24.52;;;16.92;;
55913;SDS011;58179;48.776;9.124;2023-03-01T13:41:12;23.98;;;16.38;;
55913;SDS011;58179;48.776;9.124;2023-03-01T13:43:40;25.00;;;17.75;;
55913;SDS011;58179;48.776;9.124;2023-03-01T13:46:09;24.63;;;15.20;;
55913;SDS011;58179;48.776;9.124;2023-03-01T13:48:41;24.17;;;16.73;;
55913;SDS011;58179;48.776;9.124;2023-03-01T13:51:11;23.83;;;16.77;;
55913;SDS011;58179;48.776;9.124;2023-03-01T13:53:39;20.70;;;16.00;;
55913;SDS011;58179;48.776;9.124;2023-03-01T13:56:09;23.33;;;16.60;;
55913;SDS011;58179;48.776;9.124;2023-03-01T13:58:47;24.70;;;17.70;;
55913;SDS011;58179;48.776;9.124;2023-03-01T14:01:24;23.65;;;16.63;;
55913;SDS011;58179;48.776;9.124;2023-03-01T14:03:53;23.20;;;15.52;;
55913;SDS011;58179;48.776;9.124;2023-03-01T14:06:22;23.65;;;16.08;;
55913;SDS011;58179;48.776;9.124;2023-03-01T14:08:50;26.48;;;16.85;;
55913;SDS011;58179;48.776;9.124;2023-03-01T14:14:39;22.05;;;16.52;;
55913;SDS011;58179;48.776;9.124;2023-03-01T14:20:16;24.50;;;17.02;;
55913;SDS011;58179;48.776;9.124;2023-03-01T14:22:46;21.10;;;15.82;;
55913;SDS011;58179;48.776;9.124;2023-03-01T14:25:19;23.00;;;16.98;;
55913;SDS011;58179;48.776;9.124;2023-03-01T14:27:57;24.20;;;15.40;;
55913;SDS011;58179;48.776;9.124;2023-03-01T14:30:27;25.23;;;17.85;;
55913;SDS011;58179;48.776;9.124;2023-03-01T14:33:00;22.73;;;16.92;;
55913;SDS011;58179;48.776;9.124;2023-03-01T14:35:30;22.55;;;16.25;;
55913;SDS011;58179;48.776;9.124;2023-03-01T14:38:00;22.10;;;14.90;;
55913;SDS011;58179;48.776;9.124;2023-03-01T14:40:27;21.88;;;16.48;;
55913;SDS011;58179;48.776;9.124;2023-03-01T14:42:56;18.80;;;13.98;;
55913;SDS011;58179;48.776;9.124;2023-03-01T14:45:24;24.17;;;18.23;;
55913;SDS011;58179;48.776;9.124;2023-03-01T14:47:52;27.30;;;17.67;;
55913;SDS011;58179;48.776;9.124;2023-03-01T14:50:21;23.13;;;16.20;;
55913;SDS011;58179;48.776;9.124;2023-03-01T14:52:52;23.27;;;15.43;;
55913;SDS011;58179;48.776;9.124;2023-03-01T14:55:24;25.17;;;16.95;;
55913;SDS011;58179;48.776;9.124;2023-03-01T14:57:55;22.45;;;16.33;;
55913;SDS011;58179;48.776;9.124;2023-03-01T15:00:23;21.83;;;16.58;;